createdAt,value
2018-11-11T00:01:11.212Z,3.30
2018-11-11T00:03:39.524Z,2.83
2018-11-11T00:06:07.840Z,3.30
2018-11-11T00:08:36.128Z,2.85
2018-11-11T00:11:04.684Z,3.70
2018-11-11T00:13:33.129Z,3.00
2018-11-11T00:16:01.689Z,3.75
2018-11-11T00:18:30.141Z,3.55
2018-11-11T00:20:58.456Z,3.40
2018-11-11T00:23:27.002Z,3.02
2018-11-11T00:25:55.250Z,2.77
2018-11-11T00:28:23.627Z,3.42
2018-11-11T00:30:51.915Z,3.10
2018-11-11T00:33:20.219Z,2.98
2018-11-11T00:35:48.478Z,2.75
2018-11-11T00:38:16.788Z,2.77
2018-11-11T00:40:45.067Z,3.30
2018-11-11T00:43:13.344Z,2.80
2018-11-11T00:45:41.593Z,3.00
2018-11-11T00:48:09.923Z,2.77
2018-11-11T00:50:38.332Z,2.27
2018-11-11T00:53:06.913Z,2.58
2018-11-11T00:55:38.607Z,2.15
2018-11-11T00:58:07.047Z,3.08
2018-11-11T01:00:35.674Z,3.12
2018-11-11T01:03:04.125Z,3.00
2018-11-11T01:05:32.521Z,2.33
2018-11-11T01:08:07.468Z,2.37
2018-11-11T01:10:36.088Z,3.05
2018-11-11T01:13:04.790Z,2.47
2018-11-11T01:15:33.062Z,1.85
2018-11-11T01:18:01.360Z,2.12
2018-11-11T01:20:29.658Z,2.15
2018-11-11T01:22:57.984Z,2.37
2018-11-11T01:25:26.311Z,2.12
2018-11-11T01:27:54.608Z,1.92
2018-11-11T01:30:22.876Z,2.27
2018-11-11T01:32:51.182Z,2.20
2018-11-11T01:35:19.478Z,2.10
2018-11-11T01:37:47.837Z,1.70
2018-11-11T01:40:16.292Z,2.00
2018-11-11T01:42:45.100Z,2.10
2018-11-11T01:45:15.678Z,1.75
2018-11-11T01:47:44.812Z,1.60
2018-11-11T01:50:13.785Z,2.10
2018-11-11T01:52:42.484Z,1.47
2018-11-11T01:55:11.632Z,1.82
2018-11-11T01:57:40.064Z,1.82
2018-11-11T02:00:10.457Z,2.12
2018-11-11T02:02:38.866Z,1.87
2018-11-11T02:05:08.324Z,1.80
2018-11-11T02:07:36.611Z,1.47
2018-11-11T02:10:05.958Z,1.47
2018-11-11T02:12:34.265Z,1.70
2018-11-11T02:15:02.596Z,2.02
2018-11-11T02:17:30.902Z,1.27
2018-11-11T02:19:59.515Z,1.45
2018-11-11T02:22:27.855Z,1.70
2018-11-11T02:24:56.284Z,1.87
2018-11-11T02:27:24.858Z,1.47
2018-11-11T02:29:53.604Z,1.72
2018-11-11T02:32:22.170Z,1.40
2018-11-11T02:34:50.580Z,1.35
2018-11-11T02:37:19.136Z,1.50
2018-11-11T02:39:47.422Z,1.40
2018-11-11T02:42:15.684Z,1.80
2018-11-11T02:44:43.962Z,1.77
2018-11-11T02:47:12.276Z,1.82
2018-11-11T02:49:40.627Z,1.52
2018-11-11T02:52:08.950Z,1.42
2018-11-11T02:54:37.242Z,1.45
2018-11-11T02:57:05.731Z,1.62
2018-11-11T02:59:34.008Z,1.60
2018-11-11T03:02:02.310Z,1.85
2018-11-11T03:04:30.798Z,1.82
2018-11-11T03:06:59.168Z,1.40
2018-11-11T03:09:27.819Z,1.35
2018-11-11T03:11:56.496Z,1.40
2018-11-11T03:14:24.880Z,1.57
2018-11-11T03:16:53.255Z,1.65
2018-11-11T03:19:21.609Z,1.50
2018-11-11T03:21:49.899Z,1.60
2018-11-11T03:24:18.176Z,1.35
2018-11-11T03:26:46.966Z,1.22
2018-11-11T03:29:15.221Z,1.87
2018-11-11T03:31:43.475Z,1.20
2018-11-11T03:34:11.755Z,1.90
2018-11-11T03:36:40.081Z,1.30
2018-11-11T03:39:09.497Z,1.15
2018-11-11T03:41:38.061Z,1.20
2018-11-11T03:44:06.481Z,1.10
2018-11-11T03:46:35.038Z,1.98
2018-11-11T03:49:03.584Z,1.37
2018-11-11T03:51:32.187Z,1.55
2018-11-11T03:54:00.724Z,1.22
2018-11-11T03:56:29.106Z,0.85
2018-11-11T03:58:57.377Z,1.17
2018-11-11T04:01:25.643Z,0.95
2018-11-11T04:03:53.928Z,1.20
2018-11-11T04:06:22.214Z,1.25
2018-11-11T04:08:50.505Z,1.00
2018-11-11T04:11:18.773Z,1.10
2018-11-11T04:13:47.028Z,1.52
2018-11-11T04:16:15.417Z,1.27
2018-11-11T04:18:43.675Z,1.40
2018-11-11T04:21:12.070Z,1.47
2018-11-11T04:23:40.551Z,1.67
2018-11-11T04:26:08.971Z,1.05
2018-11-11T04:28:37.499Z,1.30
2018-11-11T04:31:06.573Z,0.98
2018-11-11T04:33:34.910Z,1.07
2018-11-11T04:36:03.245Z,1.47
2018-11-11T04:38:31.535Z,0.93
2018-11-11T04:41:00.037Z,1.40
2018-11-11T04:43:28.376Z,2.05
2018-11-11T04:45:56.678Z,1.40
2018-11-11T04:48:25.002Z,1.20
2018-11-11T04:50:53.277Z,1.80
2018-11-11T04:53:21.547Z,1.02
2018-11-11T04:55:49.928Z,2.00
2018-11-11T04:58:19.420Z,1.70
2018-11-11T05:00:47.882Z,1.17
2018-11-11T05:03:16.619Z,1.10
2018-11-11T05:05:45.164Z,1.50
2018-11-11T05:08:13.775Z,1.32
2018-11-11T05:10:43.234Z,1.92
2018-11-11T05:13:11.547Z,1.60
2018-11-11T05:15:39.861Z,1.60
2018-11-11T05:18:08.186Z,1.20
2018-11-11T05:20:36.523Z,1.20
2018-11-11T05:23:05.273Z,1.55
2018-11-11T05:25:33.556Z,1.32
2018-11-11T05:28:01.868Z,1.37
2018-11-11T05:30:30.162Z,1.52
2018-11-11T05:32:58.474Z,1.45
2018-11-11T05:35:26.793Z,1.17
2018-11-11T05:37:55.135Z,1.72
2018-11-11T05:40:23.615Z,0.90
2018-11-11T05:42:52.076Z,1.10
2018-11-11T05:45:20.716Z,1.72
2018-11-11T05:47:49.404Z,1.42
2018-11-11T05:50:17.841Z,1.10
2018-11-11T05:52:46.923Z,1.50
2018-11-11T05:55:15.293Z,1.72
2018-11-11T05:57:43.628Z,1.27
2018-11-11T06:00:13.442Z,1.20
2018-11-11T06:02:41.735Z,1.65
2018-11-11T06:05:11.548Z,1.35
2018-11-11T06:07:39.836Z,1.30
2018-11-11T06:10:11.455Z,1.70
2018-11-11T06:12:39.738Z,1.62
2018-11-11T06:15:09.514Z,1.30
2018-11-11T06:17:38.220Z,1.15
2018-11-11T06:20:08.531Z,1.52
2018-11-11T06:22:36.823Z,1.02
2018-11-11T06:25:05.391Z,1.10
2018-11-11T06:27:33.802Z,1.70
2018-11-11T06:30:02.291Z,1.25
2018-11-11T06:32:30.880Z,1.12
2018-11-11T06:34:59.390Z,1.50
2018-11-11T06:37:28.479Z,1.30
2018-11-11T06:39:57.044Z,2.12
2018-11-11T06:42:25.497Z,1.35
2018-11-11T06:44:53.792Z,1.10
2018-11-11T06:47:22.128Z,1.40
2018-11-11T06:49:50.474Z,1.22
2018-11-11T06:52:18.781Z,1.20
2018-11-11T06:54:47.087Z,1.47
2018-11-11T06:57:15.413Z,0.95
2018-11-11T06:59:43.834Z,1.00
2018-11-11T07:02:12.141Z,1.42
2018-11-11T07:04:40.867Z,1.57
2018-11-11T07:07:09.303Z,1.20
2018-11-11T07:09:37.896Z,1.17
2018-11-11T07:12:06.264Z,1.60
2018-11-11T07:14:34.791Z,1.20
2018-11-11T07:17:03.300Z,1.55
2018-11-11T07:19:31.805Z,1.20
2018-11-11T07:22:00.097Z,1.70
2018-11-11T07:24:28.493Z,1.22
2018-11-11T07:26:56.919Z,1.37
2018-11-11T07:29:25.602Z,1.42
2018-11-11T07:31:54.080Z,1.20
2018-11-11T07:34:22.450Z,0.95
2018-11-11T07:36:51.655Z,1.45
2018-11-11T07:39:19.974Z,1.40
2018-11-11T07:41:48.650Z,1.40
2018-11-11T07:44:17.009Z,1.15
2018-11-11T07:46:45.536Z,0.82
2018-11-11T07:49:14.333Z,1.25
2018-11-11T07:51:42.785Z,1.00
2018-11-11T07:54:11.333Z,1.37
2018-11-11T07:56:40.048Z,1.22
2018-11-11T07:59:08.376Z,1.15
2018-11-11T08:01:36.823Z,1.20
2018-11-11T08:04:05.053Z,1.12
2018-11-11T08:06:33.335Z,1.00
2018-11-11T08:09:01.650Z,1.10
2018-11-11T08:11:41.645Z,1.27
2018-11-11T08:14:09.921Z,1.52
2018-11-11T08:16:38.431Z,1.30
2018-11-11T08:19:06.730Z,1.05
2018-11-11T08:21:35.983Z,1.27
2018-11-11T08:24:04.364Z,1.10
2018-11-11T08:26:32.688Z,1.30
2018-11-11T08:29:01.000Z,1.55
2018-11-11T08:31:29.394Z,0.93
2018-11-11T08:33:57.809Z,0.80
2018-11-11T08:36:26.103Z,1.70
2018-11-11T08:38:54.436Z,1.30
2018-11-11T08:41:22.839Z,1.30
2018-11-11T08:43:51.365Z,0.90
2018-11-11T08:46:19.993Z,1.12
2018-11-11T08:48:48.568Z,1.15
2018-11-11T08:51:17.657Z,1.67
2018-11-11T08:53:45.912Z,1.32
2018-11-11T08:56:14.253Z,2.02
2018-11-11T08:58:42.563Z,1.12
2018-11-11T09:01:10.871Z,1.30
2018-11-11T09:03:39.256Z,1.15
2018-11-11T09:06:07.568Z,1.00
2018-11-11T09:08:35.927Z,1.20
2018-11-11T09:11:04.248Z,0.90
2018-11-11T09:13:32.791Z,1.10
2018-11-11T09:16:01.099Z,1.40
2018-11-11T09:18:29.601Z,1.07
2018-11-11T09:20:58.493Z,1.40
2018-11-11T09:23:28.015Z,1.07
2018-11-11T09:25:56.623Z,1.45
2018-11-11T09:28:25.272Z,0.60
2018-11-11T09:30:53.699Z,1.00
2018-11-11T09:33:22.048Z,1.32
2018-11-11T09:35:50.356Z,0.90
2018-11-11T09:38:18.700Z,1.10
2018-11-11T09:40:47.025Z,1.12
2018-11-11T09:43:16.308Z,1.12
2018-11-11T09:45:44.612Z,1.17
2018-11-11T09:48:13.011Z,1.07
2018-11-11T09:50:41.398Z,0.98
2018-11-11T09:53:09.720Z,0.75
2018-11-11T09:55:38.545Z,1.42
2018-11-11T09:58:07.219Z,0.60
2018-11-11T10:00:35.783Z,1.22
2018-11-11T10:03:08.079Z,0.88
2018-11-11T10:05:42.408Z,1.42
2018-11-11T10:08:16.033Z,0.90
2018-11-11T10:10:49.572Z,1.00
2018-11-11T10:13:28.336Z,1.10
2018-11-11T10:16:02.528Z,0.90
2018-11-11T10:18:35.802Z,0.88
2018-11-11T10:21:10.659Z,0.90
2018-11-11T10:23:46.140Z,0.70
2018-11-11T10:26:18.769Z,0.78
2018-11-11T10:28:52.529Z,0.60
2018-11-11T10:31:25.507Z,0.88
2018-11-11T10:34:30.816Z,0.78
2018-11-11T10:37:03.110Z,0.90
2018-11-11T10:41:40.669Z,0.93
2018-11-11T10:44:22.784Z,1.10
2018-11-11T10:46:55.088Z,0.75
2018-11-11T10:49:28.137Z,0.85
2018-11-11T10:51:56.495Z,0.90
2018-11-11T10:54:24.955Z,0.82
2018-11-11T10:56:53.171Z,0.98
2018-11-11T10:59:21.509Z,0.55
2018-11-11T11:01:55.941Z,0.85
2018-11-11T11:04:24.235Z,0.80
2018-11-11T11:06:57.846Z,1.12
2018-11-11T11:09:26.123Z,0.60
2018-11-11T11:11:54.493Z,0.90
2018-11-11T11:14:22.814Z,0.80
2018-11-11T11:16:51.486Z,0.57
2018-11-11T11:19:19.940Z,0.85
2018-11-11T11:21:48.934Z,0.70
2018-11-11T11:24:17.565Z,1.02
2018-11-11T11:26:46.703Z,0.88
2018-11-11T11:29:15.280Z,0.80
2018-11-11T11:31:44.011Z,0.60
2018-11-11T11:34:12.347Z,0.72
2018-11-11T11:36:40.671Z,0.85
2018-11-11T11:39:09.855Z,1.10
2018-11-11T11:41:38.182Z,1.07
2018-11-11T11:44:06.738Z,0.88
2018-11-11T11:46:35.068Z,0.90
2018-11-11T11:49:03.456Z,1.07
2018-11-11T11:51:31.786Z,1.20
2018-11-11T11:54:00.343Z,0.75
2018-11-11T11:56:28.815Z,0.90
2018-11-11T11:58:57.196Z,0.88
2018-11-11T12:01:25.875Z,0.82
2018-11-11T12:03:54.783Z,1.10
2018-11-11T12:06:23.286Z,0.90
2018-11-11T12:08:52.173Z,0.88
2018-11-11T12:11:20.834Z,1.10
2018-11-11T12:13:49.955Z,1.00
2018-11-11T12:16:18.469Z,0.90
2018-11-11T12:18:46.775Z,0.72
2018-11-11T12:21:15.123Z,0.80
2018-11-11T12:23:43.430Z,0.70
2018-11-11T12:26:11.777Z,0.88
2018-11-11T12:28:40.266Z,1.00
2018-11-11T12:31:08.528Z,1.00
2018-11-11T12:33:36.921Z,0.90
2018-11-11T12:36:10.547Z,1.10
2018-11-11T12:38:38.908Z,1.10
2018-11-11T12:41:07.325Z,0.68
2018-11-11T12:43:35.717Z,1.10
2018-11-11T12:46:04.322Z,0.70
2018-11-11T12:48:36.785Z,1.22
2018-11-11T12:51:05.479Z,1.05
2018-11-11T12:53:34.364Z,1.02
2018-11-11T12:56:03.228Z,1.00
2018-11-11T12:58:32.619Z,1.22
2018-11-11T13:01:01.891Z,1.10
2018-11-11T13:03:30.641Z,1.30
2018-11-11T13:05:59.777Z,0.85
2018-11-11T13:08:28.590Z,0.90
2018-11-11T13:10:57.148Z,1.37
2018-11-11T13:13:25.549Z,1.30
2018-11-11T13:15:53.926Z,1.20
2018-11-11T13:18:22.345Z,1.10
2018-11-11T13:20:50.826Z,1.10
2018-11-11T13:23:19.288Z,0.90
2018-11-11T13:25:47.714Z,1.35
2018-11-11T13:28:16.196Z,1.10
2018-11-11T13:30:44.934Z,0.93
2018-11-11T13:33:13.257Z,1.00
2018-11-11T13:35:41.585Z,1.55
2018-11-11T13:38:10.028Z,1.40
2018-11-11T13:40:38.720Z,1.00
2018-11-11T13:43:07.705Z,1.82
2018-11-11T13:45:36.451Z,0.90
2018-11-11T13:48:05.386Z,1.40
2018-11-11T13:50:34.425Z,1.12
2018-11-11T13:53:05.215Z,1.07
2018-11-11T13:55:33.698Z,0.90
2018-11-11T13:58:02.077Z,1.32
2018-11-11T14:00:30.455Z,1.10
2018-11-11T14:02:59.067Z,1.85
2018-11-11T14:05:27.419Z,1.62
2018-11-11T14:07:55.800Z,1.50
2018-11-11T14:10:24.096Z,1.15
2018-11-11T14:12:52.492Z,1.22
2018-11-11T14:15:22.355Z,1.12
2018-11-11T14:17:51.793Z,1.10
2018-11-11T14:20:21.536Z,1.62
2018-11-11T14:22:51.123Z,1.27
2018-11-11T14:25:23.744Z,1.37
2018-11-11T14:27:52.239Z,1.35
2018-11-11T14:30:25.612Z,1.30
2018-11-11T14:32:55.018Z,1.75
2018-11-11T14:35:23.388Z,1.60
2018-11-11T14:37:52.367Z,1.30
2018-11-11T14:40:23.072Z,1.70
2018-11-11T14:42:51.480Z,1.52
2018-11-11T14:45:20.666Z,1.40
2018-11-11T14:47:50.683Z,1.65
2018-11-11T14:50:20.254Z,1.65
2018-11-11T14:52:49.348Z,1.62
2018-11-11T14:55:20.375Z,1.57
2018-11-11T14:57:48.874Z,1.60
2018-11-11T15:00:20.435Z,1.80
2018-11-11T15:02:52.811Z,1.67
2018-11-11T15:05:21.535Z,1.57
2018-11-11T15:07:50.108Z,1.22
2018-11-11T15:10:18.751Z,1.57
2018-11-11T15:12:47.407Z,2.17
2018-11-11T15:15:17.472Z,1.47
2018-11-11T15:17:46.820Z,1.75
2018-11-11T15:20:16.776Z,1.52
2018-11-11T15:22:45.845Z,2.50
2018-11-11T15:25:16.289Z,1.35
2018-11-11T15:27:46.042Z,2.10
2018-11-11T15:30:20.512Z,1.70
2018-11-11T15:32:50.117Z,1.60
2018-11-11T15:35:19.258Z,2.15
2018-11-11T15:37:47.968Z,2.22
2018-11-11T15:40:18.213Z,1.80
2018-11-11T15:42:47.059Z,1.50
2018-11-11T15:45:21.487Z,1.98
2018-11-11T15:47:50.232Z,1.35
2018-11-11T15:50:21.322Z,1.57
2018-11-11T15:52:51.876Z,1.30
2018-11-11T15:55:21.282Z,1.45
2018-11-11T15:57:49.935Z,1.27
2018-11-11T16:00:20.578Z,1.72
2018-11-11T16:02:49.008Z,1.00
2018-11-11T16:05:18.052Z,1.02
2018-11-11T16:07:47.479Z,1.47
2018-11-11T16:10:17.290Z,1.42
2018-11-11T16:12:45.576Z,1.30
2018-11-11T16:15:19.195Z,1.42
2018-11-11T16:17:48.978Z,1.40
2018-11-11T16:20:19.008Z,1.40
2018-11-11T16:22:48.682Z,1.40
2018-11-11T16:25:16.954Z,1.40
2018-11-11T16:27:46.052Z,1.50
2018-11-11T16:30:17.416Z,1.60
2018-11-11T16:32:46.188Z,1.40
2018-11-11T16:35:15.682Z,1.52
2018-11-11T16:37:44.067Z,1.82
2018-11-11T16:40:31.891Z,1.90
2018-11-11T16:43:00.412Z,1.77
2018-11-11T16:45:30.658Z,2.05
2018-11-11T16:47:59.222Z,1.95
2018-11-11T16:55:19.524Z,2.40
2018-11-11T17:00:25.417Z,1.42
2018-11-11T17:02:54.210Z,2.22
2018-11-11T17:05:24.677Z,1.52
2018-11-11T17:07:53.277Z,2.92
2018-11-11T17:10:22.889Z,2.70
2018-11-11T17:12:52.275Z,2.22
2018-11-11T17:15:22.085Z,2.15
2018-11-11T17:17:50.387Z,2.17
2018-11-11T17:20:20.081Z,1.77
2018-11-11T17:22:49.484Z,1.80
2018-11-11T17:25:18.514Z,1.92
2018-11-11T17:27:47.152Z,1.72
2018-11-11T17:30:17.482Z,2.52
2018-11-11T17:32:46.432Z,2.20
2018-11-11T17:35:14.636Z,2.10
2018-11-11T17:37:43.975Z,1.92
2018-11-11T17:40:15.300Z,1.90
2018-11-11T17:42:44.827Z,1.90
2018-11-11T17:45:13.547Z,2.25
2018-11-11T17:47:42.580Z,2.08
2018-11-11T17:50:16.174Z,2.05
2018-11-11T17:52:44.542Z,1.77
2018-11-11T17:55:14.250Z,2.37
2018-11-11T17:57:43.154Z,2.05
2018-11-11T18:00:13.343Z,2.27
2018-11-11T18:02:41.653Z,1.92
2018-11-11T18:05:11.260Z,2.10
2018-11-11T18:07:39.711Z,1.80
2018-11-11T18:10:10.997Z,1.85
2018-11-11T18:12:39.416Z,1.85
2018-11-11T18:15:09.199Z,2.35
2018-11-11T18:17:37.707Z,2.27
2018-11-11T18:20:08.690Z,2.02
2018-11-11T18:22:36.946Z,2.12
2018-11-11T18:25:05.753Z,1.98
2018-11-11T18:27:34.187Z,2.25
2018-11-11T18:30:02.450Z,1.65
2018-11-11T18:32:30.751Z,1.62
2018-11-11T18:34:59.047Z,1.60
2018-11-11T18:37:27.410Z,1.98
2018-11-11T18:39:55.888Z,2.00
2018-11-11T18:42:24.349Z,1.95
2018-11-11T18:44:52.681Z,1.37
2018-11-11T18:47:20.903Z,1.87
2018-11-11T18:49:49.283Z,1.60
2018-11-11T18:52:17.823Z,1.57
2018-11-11T18:54:46.341Z,1.82
2018-11-11T18:57:14.999Z,2.02
2018-11-11T18:59:43.225Z,2.05
2018-11-11T19:02:11.570Z,1.52
2018-11-11T19:04:39.970Z,1.85
2018-11-11T19:07:08.335Z,1.98
2018-11-11T19:09:36.659Z,2.05
2018-11-11T19:12:05.341Z,1.85
2018-11-11T19:14:33.647Z,1.95
2018-11-11T19:17:01.966Z,1.85
2018-11-11T19:19:30.319Z,1.77
2018-11-11T19:21:58.744Z,1.87
2018-11-11T19:24:27.119Z,1.67
2018-11-11T19:26:55.462Z,2.00
2018-11-11T19:29:23.769Z,2.17
2018-11-11T19:31:52.317Z,1.98
2018-11-11T19:34:20.737Z,1.98
2018-11-11T19:36:49.187Z,2.22
2018-11-11T19:39:17.576Z,2.45
2018-11-11T19:41:45.938Z,2.10
2018-11-11T19:44:14.297Z,2.60
2018-11-11T19:46:42.652Z,2.50
2018-11-11T19:49:10.929Z,2.87
2018-11-11T19:51:39.375Z,2.72
2018-11-11T19:54:14.548Z,2.05
2018-11-11T19:56:42.989Z,2.55
2018-11-11T19:59:11.329Z,2.20
2018-11-11T20:01:39.726Z,2.37
2018-11-11T20:04:08.103Z,2.00
2018-11-11T20:06:37.294Z,2.27
2018-11-11T20:09:08.995Z,1.90
2018-11-11T20:11:38.269Z,2.30
2018-11-11T20:14:06.823Z,2.45
2018-11-11T20:16:35.195Z,2.10
2018-11-11T20:19:03.536Z,1.82
2018-11-11T20:21:32.072Z,2.27
2018-11-11T20:24:01.366Z,1.80
2018-11-11T20:26:29.782Z,1.42
2018-11-11T20:28:58.692Z,1.35
2018-11-11T20:31:27.093Z,1.50
2018-11-11T20:33:55.446Z,1.90
2018-11-11T20:36:23.823Z,1.35
2018-11-11T20:38:52.344Z,1.50
2018-11-11T20:41:20.691Z,1.60
2018-11-11T20:43:48.976Z,1.20
2018-11-11T20:46:17.267Z,1.40
2018-11-11T20:48:45.592Z,1.50
2018-11-11T20:51:14.012Z,1.32
2018-11-11T20:53:42.448Z,1.12
2018-11-11T20:56:11.059Z,1.20
2018-11-11T20:58:39.216Z,1.47
2018-11-11T21:01:07.548Z,1.17
2018-11-11T21:03:36.020Z,1.25
2018-11-11T21:06:05.247Z,1.55
2018-11-11T21:08:33.919Z,1.27
2018-11-11T21:11:02.444Z,1.42
2018-11-11T21:13:30.707Z,1.05
2018-11-11T21:15:59.186Z,1.15
2018-11-11T21:18:27.702Z,1.15
2018-11-11T21:20:55.989Z,0.98
2018-11-11T21:23:24.271Z,1.27
2018-11-11T21:25:52.614Z,1.60
2018-11-11T21:28:20.883Z,1.15
2018-11-11T21:30:49.285Z,1.35
2018-11-11T21:33:17.587Z,1.35
2018-11-11T21:35:47.703Z,1.15
2018-11-11T21:38:16.104Z,1.30
2018-11-11T21:40:45.101Z,1.40
2018-11-11T21:43:13.975Z,1.60
2018-11-11T21:45:42.739Z,1.20
2018-11-11T21:48:11.092Z,1.65
2018-11-11T21:50:39.638Z,1.30
2018-11-11T21:53:44.769Z,1.05
2018-11-11T21:56:13.652Z,1.07
2018-11-11T21:58:42.006Z,1.05
2018-11-11T22:01:10.727Z,1.30
2018-11-11T22:03:39.029Z,1.10
2018-11-11T22:06:07.319Z,0.90
2018-11-11T22:08:35.912Z,1.10
2018-11-11T22:11:05.120Z,1.10
2018-11-11T22:13:33.651Z,0.90
2018-11-11T22:16:01.974Z,1.20
2018-11-11T22:18:30.265Z,1.20
2018-11-11T22:20:58.592Z,0.70
2018-11-11T22:23:26.871Z,1.07
2018-11-11T22:25:55.167Z,0.85
2018-11-11T22:28:24.019Z,1.10
2018-11-11T22:30:52.908Z,1.02
2018-11-11T22:33:21.492Z,1.20
2018-11-11T22:35:51.397Z,1.22
2018-11-11T22:38:19.824Z,1.47
2018-11-11T22:40:48.134Z,1.50
2018-11-11T22:43:16.936Z,1.10
2018-11-11T22:45:45.535Z,1.50
2018-11-11T22:48:15.060Z,1.20
2018-11-11T22:50:43.470Z,1.72
2018-11-11T22:53:12.011Z,1.62
2018-11-11T22:55:40.336Z,1.75
2018-11-11T22:58:08.612Z,1.72
2018-11-11T23:00:36.949Z,1.57
2018-11-11T23:03:05.591Z,2.17
2018-11-11T23:05:34.290Z,1.65
2018-11-11T23:08:02.649Z,1.77
2018-11-11T23:10:30.892Z,1.90
2018-11-11T23:12:59.198Z,2.10
2018-11-11T23:15:29.543Z,1.77
2018-11-11T23:17:57.849Z,1.67
2018-11-11T23:20:26.410Z,1.75
2018-11-11T23:22:55.262Z,1.52
2018-11-11T23:25:23.735Z,1.65
2018-11-11T23:27:52.056Z,1.70
2018-11-11T23:30:21.655Z,1.67
2018-11-11T23:32:50.120Z,2.30
2018-11-11T23:35:19.298Z,1.60
2018-11-11T23:37:47.775Z,1.60
2018-11-11T23:40:17.328Z,1.90
2018-11-11T23:42:49.377Z,1.80
2018-11-11T23:45:17.910Z,2.12
2018-11-11T23:47:46.202Z,1.60
2018-11-11T23:50:16.669Z,1.52
2018-11-11T23:52:45.352Z,1.90
2018-11-11T23:55:14.886Z,1.70
2018-11-11T23:57:43.193Z,1.60
